createdAt,value
2022-12-23T00:01:30.405Z,3.08
2022-12-23T00:03:58.155Z,1.58
2022-12-23T00:06:24.524Z,0.80
2022-12-23T00:08:58.345Z,0.85
2022-12-23T00:11:25.811Z,0.80
2022-12-23T00:14:16.302Z,0.70
2022-12-23T00:16:46.744Z,1.50
2022-12-23T00:19:13.077Z,1.05
2022-12-23T00:21:39.373Z,0.50
2022-12-23T00:24:05.958Z,0.52
2022-12-23T00:26:32.306Z,0.82
2022-12-23T00:28:58.709Z,0.40
2022-12-23T00:31:25.326Z,1.55
2022-12-23T00:33:53.417Z,1.05
2022-12-23T00:36:27.702Z,1.20
2022-12-23T00:39:13.657Z,1.13
2022-12-23T00:41:58.799Z,1.27
2022-12-23T00:44:25.221Z,0.73
2022-12-23T00:46:51.552Z,0.85
2022-12-23T00:49:37.854Z,0.82
2022-12-23T00:52:04.962Z,0.43
2022-12-23T00:54:32.001Z,0.90
2022-12-23T00:56:58.908Z,0.95
2022-12-23T00:59:25.200Z,0.98
2022-12-23T01:02:10.240Z,0.30
2022-12-23T01:04:55.466Z,0.77
2022-12-23T01:07:21.976Z,0.60
2022-12-23T01:09:48.320Z,0.77
2022-12-23T01:12:14.633Z,0.32
2022-12-23T01:14:41.346Z,0.68
2022-12-23T01:17:08.199Z,0.70
2022-12-23T01:19:34.855Z,0.80
2022-12-23T01:22:01.299Z,0.60
2022-12-23T01:24:28.433Z,0.40
2022-12-23T01:26:54.835Z,0.57
2022-12-23T01:29:21.155Z,0.40
2022-12-23T01:31:47.533Z,0.50
2022-12-23T01:34:13.879Z,0.70
2022-12-23T01:36:40.342Z,1.50
2022-12-23T01:39:06.843Z,0.45
2022-12-23T01:41:51.982Z,0.57
2022-12-23T01:44:36.835Z,1.08
2022-12-23T01:47:04.411Z,0.52
2022-12-23T01:49:30.919Z,0.38
2022-12-23T01:51:57.299Z,0.30
2022-12-23T01:54:23.673Z,0.93
2022-12-23T01:56:49.990Z,0.40
2022-12-23T01:59:36.376Z,0.30
2022-12-23T02:02:21.637Z,0.40
2022-12-23T02:04:49.723Z,0.85
2022-12-23T02:07:35.368Z,0.40
2022-12-23T02:10:02.417Z,0.50
2022-12-23T02:12:47.502Z,0.80
2022-12-23T02:15:51.260Z,0.40
2022-12-23T02:18:17.549Z,0.30
2022-12-23T02:21:02.828Z,0.32
2022-12-23T02:23:32.285Z,0.68
2022-12-23T02:26:01.692Z,0.32
2022-12-23T02:28:28.010Z,0.30
2022-12-23T02:31:16.829Z,0.40
2022-12-23T02:34:03.535Z,0.57
2022-12-23T02:36:52.929Z,0.32
2022-12-23T02:39:30.977Z,0.50
2022-12-23T02:42:00.872Z,0.40
2022-12-23T02:44:32.425Z,0.40
2022-12-23T02:47:04.323Z,0.30
2022-12-23T02:51:58.962Z,0.30
2022-12-23T02:54:29.386Z,0.30
2022-12-23T02:56:56.633Z,0.40
2022-12-23T02:59:25.852Z,0.40
2022-12-23T03:01:53.264Z,0.47
2022-12-23T03:04:20.026Z,0.30
2022-12-23T03:06:48.474Z,0.30
2022-12-23T03:09:17.515Z,0.50
2022-12-23T03:11:54.780Z,0.68
2022-12-23T03:14:27.471Z,0.50
2022-12-23T03:17:01.472Z,0.50
2022-12-23T03:19:27.791Z,0.50
2022-12-23T03:22:05.601Z,0.50
2022-12-23T03:24:50.883Z,0.40
2022-12-23T03:27:46.674Z,0.40
2022-12-23T03:30:14.728Z,0.40
2022-12-23T03:32:47.079Z,0.40
2022-12-23T03:35:13.920Z,0.30
2022-12-23T03:37:43.808Z,0.40
2022-12-23T03:40:10.448Z,0.40
2022-12-23T03:42:41.401Z,0.47
2022-12-23T03:45:37.560Z,0.30
2022-12-23T03:48:00.666Z,1.13
2022-12-23T03:50:27.172Z,0.30
2022-12-23T03:53:23.003Z,0.30
2022-12-23T03:55:55.512Z,0.60
2022-12-23T03:58:21.777Z,3.13
2022-12-23T04:00:54.148Z,0.32
2022-12-23T04:03:26.550Z,0.90
2022-12-23T04:05:57.690Z,0.40
2022-12-23T04:08:30.102Z,0.30
2022-12-23T04:10:56.905Z,0.80
2022-12-23T04:13:23.294Z,0.35
2022-12-23T04:15:49.671Z,0.52
2022-12-23T04:18:16.463Z,0.73
2022-12-23T04:20:42.922Z,0.50
2022-12-23T04:23:09.237Z,0.40
2022-12-23T04:25:35.570Z,0.40
2022-12-23T04:28:01.965Z,0.45
2022-12-23T04:30:33.955Z,0.50
2022-12-23T04:33:01.118Z,0.88
2022-12-23T04:35:27.683Z,1.48
2022-12-23T04:37:54.090Z,0.93
2022-12-23T04:40:20.465Z,1.85
2022-12-23T04:42:46.851Z,1.00
2022-12-23T04:45:13.148Z,0.60
2022-12-23T04:47:40.683Z,0.82
2022-12-23T04:50:07.913Z,0.57
2022-12-23T04:52:34.262Z,1.20
2022-12-23T04:55:00.645Z,0.77
2022-12-23T04:57:27.119Z,0.60
2022-12-23T04:59:53.460Z,1.25
2022-12-23T05:02:19.992Z,0.50
2022-12-23T05:04:46.450Z,0.40
2022-12-23T05:07:12.828Z,0.75
2022-12-23T05:09:39.311Z,0.50
2022-12-23T05:12:05.704Z,0.52
2022-12-23T05:14:32.047Z,0.68
2022-12-23T05:17:03.632Z,0.60
2022-12-23T05:19:33.360Z,0.40
2022-12-23T05:21:59.661Z,0.40
2022-12-23T05:24:25.984Z,0.52
2022-12-23T05:26:59.468Z,0.32
2022-12-23T05:29:26.551Z,0.30
2022-12-23T05:31:52.995Z,0.30
2022-12-23T05:34:19.512Z,0.20
2022-12-23T05:36:46.277Z,0.50
2022-12-23T05:39:12.631Z,0.50
2022-12-23T05:41:39.080Z,0.40
2022-12-23T05:44:05.560Z,0.60
2022-12-23T05:46:32.109Z,0.50
2022-12-23T05:48:58.792Z,0.55
2022-12-23T05:51:25.091Z,0.40
2022-12-23T05:53:51.377Z,0.52
2022-12-23T05:56:17.847Z,0.75
2022-12-23T05:58:44.141Z,0.30
2022-12-23T06:01:10.547Z,0.40
2022-12-23T06:03:36.950Z,0.20
2022-12-23T06:06:03.339Z,0.20
2022-12-23T06:08:29.671Z,0.10
2022-12-23T06:10:56.132Z,0.15
2022-12-23T06:13:22.540Z,0.20
2022-12-23T06:15:48.942Z,0.40
2022-12-23T06:18:15.331Z,0.52
2022-12-23T06:20:41.685Z,0.50
2022-12-23T06:23:08.005Z,0.30
2022-12-23T06:25:34.441Z,0.20
2022-12-23T06:28:00.733Z,0.22
2022-12-23T06:30:27.133Z,0.20
2022-12-23T06:32:53.566Z,0.20
2022-12-23T06:35:19.858Z,0.20
2022-12-23T06:37:46.182Z,0.30
2022-12-23T06:40:12.883Z,0.30
2022-12-23T06:42:39.235Z,0.20
2022-12-23T06:45:05.834Z,0.30
2022-12-23T06:47:32.371Z,0.63
2022-12-23T06:49:58.744Z,0.90
2022-12-23T06:52:25.107Z,0.63
2022-12-23T06:54:51.610Z,0.60
2022-12-23T06:57:18.043Z,0.63
2022-12-23T06:59:44.402Z,0.80
2022-12-23T07:02:11.823Z,1.05
2022-12-23T07:04:38.353Z,0.80
2022-12-23T07:07:04.712Z,1.27
2022-12-23T07:09:31.209Z,0.88
2022-12-23T07:11:57.542Z,0.60
2022-12-23T07:14:23.843Z,2.42
2022-12-23T07:16:50.314Z,1.10
2022-12-23T07:19:16.747Z,1.58
2022-12-23T07:21:43.071Z,1.08
2022-12-23T07:24:09.570Z,1.08
2022-12-23T07:26:35.932Z,2.63
2022-12-23T07:29:02.384Z,1.77
2022-12-23T07:31:28.869Z,1.20
2022-12-23T07:33:55.210Z,1.48
2022-12-23T07:36:21.493Z,1.35
2022-12-23T07:38:51.494Z,2.03
2022-12-23T07:41:18.112Z,0.70
2022-12-23T07:43:44.470Z,1.45
2022-12-23T07:46:10.952Z,2.80
2022-12-23T07:48:39.595Z,1.83
2022-12-23T07:51:06.076Z,2.65
2022-12-23T07:53:32.522Z,2.22
2022-12-23T07:55:59.080Z,1.20
2022-12-23T07:58:25.530Z,1.05
2022-12-23T08:00:58.717Z,0.88
2022-12-23T08:03:25.195Z,0.57
2022-12-23T08:05:59.022Z,0.60
2022-12-23T08:08:25.329Z,0.93
2022-12-23T08:10:56.131Z,0.47
2022-12-23T08:13:22.444Z,0.77
2022-12-23T08:15:48.845Z,0.65
2022-12-23T08:18:15.197Z,0.52
2022-12-23T08:20:41.544Z,2.50
2022-12-23T08:23:08.066Z,1.65
2022-12-23T08:25:34.439Z,3.08
2022-12-23T08:28:00.812Z,1.73
2022-12-23T08:30:27.274Z,0.90
2022-12-23T08:32:53.582Z,1.10
2022-12-23T08:35:19.900Z,0.95
2022-12-23T08:37:46.714Z,1.40
2022-12-23T08:40:13.901Z,1.20
2022-12-23T08:42:40.276Z,1.17
2022-12-23T08:45:06.938Z,2.90
2022-12-23T08:47:33.268Z,1.38
2022-12-23T08:49:59.639Z,0.70
2022-12-23T08:52:26.099Z,2.00
2022-12-23T08:54:52.479Z,0.98
2022-12-23T08:57:18.838Z,1.33
2022-12-23T08:59:45.563Z,1.42
2022-12-23T09:02:12.234Z,1.05
2022-12-23T09:04:38.757Z,2.95
2022-12-23T09:07:05.151Z,3.25
2022-12-23T09:09:31.452Z,1.40
2022-12-23T09:11:57.772Z,1.70
2022-12-23T09:14:24.158Z,1.10
2022-12-23T09:16:52.422Z,1.10
2022-12-23T09:19:18.928Z,0.57
2022-12-23T09:21:45.271Z,0.60
2022-12-23T09:24:11.623Z,1.60
2022-12-23T09:26:37.999Z,1.20
2022-12-23T09:29:04.422Z,1.42
2022-12-23T09:31:36.613Z,1.08
2022-12-23T09:34:04.026Z,1.05
2022-12-23T09:36:30.638Z,0.45
2022-12-23T09:38:58.038Z,1.40
2022-12-23T09:41:40.548Z,0.60
2022-12-23T09:44:06.852Z,1.52
2022-12-23T09:46:33.820Z,0.95
2022-12-23T09:49:02.320Z,0.57
2022-12-23T09:51:29.326Z,0.50
2022-12-23T09:54:01.903Z,1.92
2022-12-23T09:56:28.445Z,1.02
2022-12-23T09:59:11.125Z,0.75
2022-12-23T10:01:56.713Z,0.38
2022-12-23T10:04:23.402Z,0.60
2022-12-23T10:06:59.351Z,0.57
2022-12-23T10:09:29.819Z,0.40
2022-12-23T10:11:57.126Z,0.40
2022-12-23T10:14:24.826Z,0.38
2022-12-23T10:16:53.840Z,1.25
2022-12-23T10:19:34.111Z,0.90
2022-12-23T10:22:06.228Z,0.60
2022-12-23T10:24:40.788Z,0.65
2022-12-23T10:27:22.812Z,0.55
2022-12-23T10:29:49.331Z,0.57
2022-12-23T10:32:27.809Z,0.50
2022-12-23T10:35:12.949Z,3.03
2022-12-23T10:37:54.780Z,0.45
2022-12-23T10:40:38.451Z,0.50
2022-12-23T10:43:17.067Z,1.48
2022-12-23T10:45:43.479Z,0.52
2022-12-23T10:48:26.752Z,2.92
2022-12-23T10:50:56.984Z,0.50
2022-12-23T10:53:30.521Z,0.75
2022-12-23T10:55:57.489Z,1.35
2022-12-23T10:58:23.909Z,0.52
2022-12-23T11:00:57.450Z,0.50
2022-12-23T11:03:24.143Z,0.60
2022-12-23T11:05:52.201Z,1.05
2022-12-23T11:08:20.415Z,1.02
2022-12-23T11:10:47.200Z,4.20
2022-12-23T11:13:23.549Z,1.48
2022-12-23T11:15:49.915Z,0.90
2022-12-23T11:18:18.598Z,0.55
2022-12-23T11:20:46.191Z,1.20
2022-12-23T11:23:25.706Z,1.38
2022-12-23T11:26:00.611Z,3.97
2022-12-23T11:28:27.263Z,1.40
2022-12-23T11:30:56.469Z,0.80
2022-12-23T11:33:31.075Z,1.80
2022-12-23T11:36:05.303Z,2.20
2022-12-23T11:38:32.323Z,1.77
2022-12-23T11:40:58.782Z,1.00
2022-12-23T11:43:26.512Z,0.80
2022-12-23T11:46:11.916Z,0.57
2022-12-23T11:48:38.299Z,0.68
2022-12-23T11:51:05.027Z,0.60
2022-12-23T11:53:32.337Z,0.52
2022-12-23T11:56:01.465Z,0.80
2022-12-23T11:58:28.831Z,1.30
2022-12-23T12:00:56.687Z,1.08
2022-12-23T12:03:32.149Z,0.70
2022-12-23T12:06:00.167Z,0.93
2022-12-23T12:08:33.909Z,0.70
2022-12-23T12:11:02.362Z,0.75
2022-12-23T12:13:39.931Z,0.50
2022-12-23T12:16:17.232Z,0.30
2022-12-23T12:18:46.206Z,0.45
2022-12-23T12:21:16.097Z,1.20
2022-12-23T12:24:08.397Z,0.80
2022-12-23T12:26:37.861Z,1.00
2022-12-23T12:29:09.179Z,1.50
2022-12-23T12:31:38.458Z,2.05
2022-12-23T12:34:23.763Z,1.35
2022-12-23T12:36:57.826Z,0.90
2022-12-23T12:39:43.556Z,0.90
2022-12-23T12:42:17.026Z,0.70
2022-12-23T12:44:52.395Z,0.60
2022-12-23T12:47:52.709Z,0.80
2022-12-23T12:50:15.411Z,0.60
2022-12-23T12:52:42.914Z,0.68
2022-12-23T12:55:15.264Z,0.80
2022-12-23T12:57:41.806Z,0.60
2022-12-23T13:00:18.522Z,0.70
2022-12-23T13:02:45.088Z,0.40
2022-12-23T13:05:11.425Z,0.38
2022-12-23T13:07:46.843Z,0.40
2022-12-23T13:10:24.653Z,2.80
2022-12-23T13:12:53.909Z,1.20
2022-12-23T13:15:32.239Z,1.17
2022-12-23T13:18:05.476Z,0.80
2022-12-23T13:20:36.153Z,0.60
2022-12-23T13:23:41.536Z,1.00
2022-12-23T13:26:08.551Z,0.60
2022-12-23T13:28:40.294Z,0.45
2022-12-23T13:31:21.734Z,0.88
2022-12-23T13:33:55.803Z,0.90
2022-12-23T13:36:41.787Z,0.60
2022-12-23T13:39:19.889Z,0.70
2022-12-23T13:41:49.172Z,1.73
2022-12-23T13:44:18.544Z,0.85
2022-12-23T13:46:57.106Z,1.73
2022-12-23T13:49:35.815Z,7.05
2022-12-23T13:52:24.689Z,5.20
2022-12-23T13:54:57.107Z,8.63
2022-12-23T13:57:44.499Z,1.50
2022-12-23T14:00:16.845Z,2.08
2022-12-23T14:03:05.636Z,9.10
2022-12-23T14:05:41.232Z,0.80
2022-12-23T14:08:20.228Z,1.30
2022-12-23T14:10:52.547Z,8.45
2022-12-23T14:13:19.402Z,5.47
2022-12-23T14:15:59.113Z,2.17
2022-12-23T14:18:34.513Z,1.20
2022-12-23T14:21:15.998Z,1.58
2022-12-23T14:23:50.013Z,1.92
2022-12-23T14:26:19.238Z,1.23
2022-12-23T14:29:08.370Z,0.60
2022-12-23T14:31:42.081Z,0.60
2022-12-23T14:34:17.515Z,0.80
2022-12-23T14:37:02.527Z,1.67
2022-12-23T14:39:30.509Z,1.65
2022-12-23T14:42:01.814Z,1.20
2022-12-23T14:44:35.210Z,1.20
2022-12-23T14:47:02.282Z,1.35
2022-12-23T14:49:39.510Z,0.90
2022-12-23T14:52:25.421Z,0.90
2022-12-23T14:55:28.054Z,1.15
2022-12-23T14:57:38.246Z,1.27
2022-12-23T15:00:05.813Z,1.10
2022-12-23T15:02:35.230Z,1.20
2022-12-23T15:05:01.976Z,2.35
2022-12-23T15:07:28.399Z,1.38
2022-12-23T15:10:01.234Z,1.25
2022-12-23T15:12:33.803Z,1.00
2022-12-23T15:15:19.718Z,1.80
2022-12-23T15:17:46.582Z,2.63
2022-12-23T15:20:15.312Z,2.60
2022-12-23T15:22:43.384Z,2.03
2022-12-23T15:25:24.471Z,2.40
2022-12-23T15:27:55.925Z,2.55
2022-12-23T15:30:26.646Z,2.10
2022-12-23T15:33:00.867Z,2.28
2022-12-23T15:35:29.431Z,2.30
2022-12-23T15:37:56.570Z,1.65
2022-12-23T15:40:24.210Z,1.30
2022-12-23T15:42:50.619Z,2.50
2022-12-23T15:45:23.247Z,1.58
2022-12-23T15:47:50.443Z,2.60
2022-12-23T15:50:17.728Z,3.72
2022-12-23T15:52:46.003Z,4.53
2022-12-23T15:55:14.549Z,1.95
2022-12-23T15:57:50.035Z,1.70
2022-12-23T16:00:20.935Z,2.05
2022-12-23T16:03:05.668Z,1.30
2022-12-23T16:05:35.348Z,1.45
2022-12-23T16:08:08.807Z,1.08
2022-12-23T16:10:35.687Z,0.77
2022-12-23T16:13:02.359Z,1.10
2022-12-23T16:15:30.723Z,1.38
2022-12-23T16:18:12.509Z,1.73
2022-12-23T16:20:41.379Z,1.50
2022-12-23T16:23:08.604Z,1.73
2022-12-23T16:25:36.077Z,1.63
2022-12-23T16:28:03.515Z,1.67
2022-12-23T16:30:33.946Z,2.05
2022-12-23T16:33:04.487Z,2.10
2022-12-23T16:35:36.748Z,1.30
2022-12-23T16:38:15.535Z,1.05
2022-12-23T16:40:42.675Z,1.08
2022-12-23T16:43:09.224Z,0.80
2022-12-23T16:45:36.783Z,1.35
2022-12-23T16:48:07.556Z,1.33
2022-12-23T16:50:34.199Z,1.20
2022-12-23T16:53:00.691Z,0.90
2022-12-23T16:55:27.078Z,0.68
2022-12-23T16:57:53.388Z,2.05
2022-12-23T17:00:19.888Z,0.90
2022-12-23T17:02:47.526Z,1.75
2022-12-23T17:05:19.016Z,1.38
2022-12-23T17:07:45.864Z,1.63
2022-12-23T17:10:13.146Z,1.45
2022-12-23T17:12:39.475Z,0.98
2022-12-23T17:15:06.675Z,0.98
2022-12-23T17:17:33.414Z,1.48
2022-12-23T17:19:59.827Z,1.63
2022-12-23T17:22:26.285Z,2.38
2022-12-23T17:24:52.782Z,3.63
2022-12-23T17:27:20.705Z,1.75
2022-12-23T17:29:47.235Z,1.42
2022-12-23T17:32:14.361Z,1.95
2022-12-23T17:34:40.780Z,1.17
2022-12-23T17:37:13.240Z,2.20
2022-12-23T17:39:39.534Z,1.80
2022-12-23T17:42:05.991Z,2.63
2022-12-23T17:44:32.482Z,1.52
2022-12-23T17:46:58.827Z,0.70
2022-12-23T17:49:25.183Z,3.70
2022-12-23T17:51:51.580Z,2.10
2022-12-23T17:54:23.483Z,1.27
2022-12-23T17:56:50.888Z,0.77
2022-12-23T17:59:17.280Z,1.10
2022-12-23T18:01:43.753Z,1.80
2022-12-23T18:04:10.127Z,1.58
2022-12-23T18:06:36.590Z,1.92
2022-12-23T18:09:02.990Z,2.63
2022-12-23T18:11:44.874Z,1.33
2022-12-23T18:14:19.630Z,4.43
2022-12-23T18:16:46.512Z,3.17
2022-12-23T18:19:16.381Z,2.03
2022-12-23T18:21:42.696Z,3.17
2022-12-23T18:24:09.956Z,4.88
2022-12-23T18:26:36.527Z,3.40
2022-12-23T18:29:03.005Z,3.15
2022-12-23T18:31:29.837Z,4.63
2022-12-23T18:33:56.216Z,4.70
2022-12-23T18:36:23.739Z,8.70
2022-12-23T18:38:52.047Z,6.95
2022-12-23T18:41:18.994Z,7.72
2022-12-23T18:43:46.536Z,5.85
2022-12-23T18:46:13.087Z,4.95
2022-12-23T18:48:39.429Z,4.25
2022-12-23T18:51:05.772Z,3.25
2022-12-23T18:53:32.139Z,5.13
2022-12-23T18:55:58.437Z,2.78
2022-12-23T18:58:24.799Z,3.90
2022-12-23T19:00:53.024Z,2.83
2022-12-23T19:03:26.783Z,3.42
2022-12-23T19:05:53.957Z,6.40
2022-12-23T19:08:26.147Z,3.28
2022-12-23T19:10:54.047Z,3.47
2022-12-23T19:13:20.513Z,3.05
2022-12-23T19:15:47.371Z,5.93
2022-12-23T19:18:15.065Z,5.45
2022-12-23T19:20:42.758Z,5.32
2022-12-23T19:23:09.762Z,5.07
2022-12-23T19:25:36.134Z,4.70
2022-12-23T19:28:02.587Z,3.08
2022-12-23T19:30:28.982Z,5.25
2022-12-23T19:32:55.484Z,7.80
2022-12-23T19:35:21.877Z,12.20
2022-12-23T19:37:48.503Z,12.40
2022-12-23T19:40:14.889Z,7.78
2022-12-23T19:42:41.547Z,6.25
2022-12-23T19:45:08.644Z,5.78
2022-12-23T19:47:35.052Z,8.15
2022-12-23T19:50:01.620Z,3.05
2022-12-23T19:52:27.966Z,5.00
2022-12-23T19:54:54.357Z,2.55
2022-12-23T19:57:20.747Z,6.43
2022-12-23T19:59:47.037Z,5.40
2022-12-23T20:02:15.265Z,6.70
2022-12-23T20:04:41.747Z,5.80
2022-12-23T20:07:08.253Z,3.53
2022-12-23T20:09:34.857Z,5.85
2022-12-23T20:12:01.236Z,5.60
2022-12-23T20:14:32.025Z,7.18
2022-12-23T20:17:00.336Z,6.50
2022-12-23T20:19:26.874Z,7.45
2022-12-23T20:21:53.409Z,7.07
2022-12-23T20:24:19.816Z,8.43
2022-12-23T20:26:46.290Z,6.28
2022-12-23T20:29:12.634Z,5.30
2022-12-23T20:31:39.267Z,3.53
2022-12-23T20:34:06.590Z,5.45
2022-12-23T20:36:34.106Z,11.88
2022-12-23T20:39:02.051Z,7.38
2022-12-23T20:41:28.822Z,5.90
2022-12-23T20:46:41.843Z,6.57
2022-12-23T20:49:08.239Z,9.65
2022-12-23T20:51:34.547Z,7.80
2022-12-23T20:54:01.170Z,5.78
2022-12-23T20:56:29.315Z,5.43
2022-12-23T20:58:57.476Z,8.60
2022-12-23T21:01:31.411Z,6.95
2022-12-23T21:03:58.948Z,8.18
2022-12-23T21:06:25.819Z,4.80
2022-12-23T21:08:52.457Z,7.90
2022-12-23T21:11:19.290Z,6.63
2022-12-23T21:13:47.159Z,6.18
2022-12-23T21:16:14.041Z,6.82
2022-12-23T21:18:41.974Z,5.72
2022-12-23T21:21:08.485Z,6.35
2022-12-23T21:23:39.075Z,4.15
2022-12-23T21:26:09.840Z,7.03
2022-12-23T21:28:36.805Z,7.22
2022-12-23T21:31:03.832Z,4.35
2022-12-23T21:33:30.195Z,5.50
2022-12-23T21:35:56.655Z,4.88
2022-12-23T21:38:23.154Z,5.40
2022-12-23T21:40:49.667Z,8.45
2022-12-23T21:43:16.024Z,8.48
2022-12-23T21:45:42.427Z,5.68
2022-12-23T21:48:08.810Z,8.38
2022-12-23T21:50:35.303Z,4.15
2022-12-23T21:53:01.647Z,4.55
2022-12-23T21:55:27.994Z,7.57
2022-12-23T21:57:54.330Z,7.07
2022-12-23T22:00:20.841Z,9.23
2022-12-23T22:02:47.186Z,7.97
2022-12-23T22:05:13.606Z,8.88
2022-12-23T22:07:40.060Z,6.63
2022-12-23T22:10:06.791Z,6.72
2022-12-23T22:12:33.148Z,5.22
2022-12-23T22:14:59.484Z,7.35
2022-12-23T22:17:25.825Z,6.35
2022-12-23T22:19:52.170Z,4.00
2022-12-23T22:22:18.639Z,9.48
2022-12-23T22:24:44.972Z,6.25
2022-12-23T22:27:11.297Z,5.90
2022-12-23T22:29:37.730Z,10.15
2022-12-23T22:32:04.231Z,8.70
2022-12-23T22:34:30.554Z,8.18
2022-12-23T22:36:56.895Z,4.45
2022-12-23T22:39:23.441Z,6.03
2022-12-23T22:41:50.499Z,4.97
2022-12-23T22:44:17.208Z,5.45
2022-12-23T22:46:43.707Z,8.13
2022-12-23T22:49:12.096Z,6.78
2022-12-23T22:51:39.486Z,7.65
2022-12-23T22:54:05.900Z,4.13
2022-12-23T22:56:32.337Z,7.45
2022-12-23T22:58:58.805Z,8.43
2022-12-23T23:01:29.576Z,4.03
2022-12-23T23:03:57.336Z,6.50
2022-12-23T23:06:25.053Z,3.47
2022-12-23T23:08:51.548Z,2.80
2022-12-23T23:11:17.875Z,8.07
2022-12-23T23:13:44.350Z,6.30
2022-12-23T23:16:10.739Z,6.10
2022-12-23T23:18:39.335Z,5.82
2022-12-23T23:21:06.610Z,8.15
2022-12-23T23:23:32.905Z,4.47
2022-12-23T23:25:59.365Z,3.75
2022-12-23T23:28:25.704Z,7.43
2022-12-23T23:31:09.787Z,7.55
2022-12-23T23:33:38.499Z,7.43
2022-12-23T23:36:05.076Z,6.82
2022-12-23T23:38:31.401Z,8.43
2022-12-23T23:40:58.113Z,6.70
2022-12-23T23:43:24.586Z,5.85
2022-12-23T23:45:51.122Z,5.55
2022-12-23T23:48:17.787Z,6.25
2022-12-23T23:50:44.433Z,7.47
2022-12-23T23:53:11.336Z,3.55
2022-12-23T23:55:38.055Z,7.38
2022-12-23T23:58:04.911Z,3.83
